createdAt,value
2018-02-21T00:02:07.245Z,54.50
2018-02-21T00:04:34.675Z,60.30
2018-02-21T00:07:02.131Z,57.90
2018-02-21T00:09:29.569Z,49.73
2018-02-21T00:11:57.784Z,51.43
2018-02-21T00:14:25.332Z,57.63
2018-02-21T00:16:52.789Z,54.00
2018-02-21T00:19:20.224Z,73.00
2018-02-21T00:21:48.485Z,53.40
2018-02-21T00:24:15.956Z,70.53
2018-02-21T00:26:44.176Z,64.10
2018-02-21T00:29:11.665Z,45.43
2018-02-21T00:31:39.120Z,60.73
2018-02-21T00:34:06.600Z,62.50
2018-02-21T00:36:34.195Z,80.57
2018-02-21T00:39:01.602Z,65.03
2018-02-21T00:41:29.068Z,63.53
2018-02-21T00:43:56.535Z,59.63
2018-02-21T00:46:23.979Z,72.00
2018-02-21T00:48:51.436Z,61.03
2018-02-21T00:51:18.915Z,53.77
2018-02-21T00:53:46.385Z,59.63
2018-02-21T00:56:13.817Z,66.47
2018-02-21T00:58:41.272Z,64.47
2018-02-21T01:01:08.762Z,66.70
2018-02-21T01:03:36.215Z,60.07
2018-02-21T01:06:03.679Z,69.30
2018-02-21T01:08:31.133Z,69.30
2018-02-21T01:10:58.572Z,63.17
2018-02-21T01:13:26.064Z,65.87
2018-02-21T01:15:53.510Z,64.30
2018-02-21T01:18:20.956Z,72.63
2018-02-21T01:20:48.456Z,65.90
2018-02-21T01:23:16.012Z,70.73
2018-02-21T01:25:43.476Z,68.80
2018-02-21T01:28:10.927Z,72.07
2018-02-21T01:30:38.355Z,76.07
2018-02-21T01:33:05.798Z,68.83
2018-02-21T01:35:34.008Z,70.50
2018-02-21T01:38:01.611Z,70.00
2018-02-21T01:40:29.060Z,70.83
2018-02-21T01:42:56.512Z,64.20
2018-02-21T01:45:23.983Z,71.90
2018-02-21T01:47:51.447Z,63.87
2018-02-21T01:50:18.882Z,67.23
2018-02-21T01:52:46.355Z,73.27
2018-02-21T01:55:13.839Z,56.63
2018-02-21T01:57:41.304Z,67.03
2018-02-21T02:00:08.856Z,66.47
2018-02-21T02:02:36.319Z,72.23
2018-02-21T02:05:03.891Z,78.33
2018-02-21T02:07:31.336Z,82.40
2018-02-21T02:09:58.792Z,61.80
2018-02-21T02:12:27.196Z,72.43
2018-02-21T02:14:56.456Z,68.73
2018-02-21T02:17:23.920Z,61.33
2018-02-21T02:19:51.359Z,68.60
2018-02-21T02:22:19.591Z,68.73
2018-02-21T02:24:47.038Z,82.47
2018-02-21T02:27:14.480Z,58.93
2018-02-21T02:29:41.980Z,71.03
2018-02-21T02:32:09.425Z,79.60
2018-02-21T02:34:36.907Z,69.70
2018-02-21T02:37:04.371Z,67.37
2018-02-21T02:39:43.801Z,80.53
2018-02-21T02:42:11.268Z,67.57
2018-02-21T02:44:38.818Z,79.67
2018-02-21T02:47:06.265Z,70.90
2018-02-21T02:49:33.744Z,79.10
2018-02-21T02:52:01.212Z,64.63
2018-02-21T02:54:28.655Z,80.63
2018-02-21T02:56:56.098Z,78.57
2018-02-21T02:59:23.584Z,68.73
2018-02-21T03:01:51.029Z,69.27
2018-02-21T03:04:18.480Z,77.77
2018-02-21T03:06:45.945Z,73.20
2018-02-21T03:09:13.435Z,66.43
2018-02-21T03:11:40.867Z,78.93
2018-02-21T03:14:08.315Z,73.50
2018-02-21T03:16:36.516Z,78.47
2018-02-21T03:19:03.997Z,73.67
2018-02-21T03:21:31.471Z,78.87
2018-02-21T03:23:58.919Z,91.37
2018-02-21T03:26:26.372Z,87.53
2018-02-21T03:28:53.826Z,85.93
2018-02-21T03:31:21.305Z,81.37
2018-02-21T03:33:48.756Z,77.83
2018-02-21T03:36:16.275Z,74.47
2018-02-21T03:38:44.543Z,71.43
2018-02-21T03:41:11.992Z,71.63
2018-02-21T03:43:39.432Z,86.70
2018-02-21T03:46:06.920Z,83.43
2018-02-21T03:48:35.180Z,78.63
2018-02-21T03:51:02.628Z,74.60
2018-02-21T03:53:30.077Z,74.47
2018-02-21T03:55:57.548Z,73.87
2018-02-21T03:58:25.040Z,73.67
2018-02-21T04:00:52.573Z,94.13
2018-02-21T04:03:20.003Z,76.47
2018-02-21T04:05:47.458Z,75.90
2018-02-21T04:08:14.908Z,70.67
2018-02-21T04:10:43.124Z,82.10
2018-02-21T04:13:10.602Z,74.23
2018-02-21T04:15:38.062Z,69.63
2018-02-21T04:18:05.507Z,73.10
2018-02-21T04:20:32.982Z,78.60
2018-02-21T04:23:00.452Z,80.80
2018-02-21T04:25:27.895Z,82.00
2018-02-21T04:27:55.340Z,85.07
2018-02-21T04:30:22.828Z,71.83
2018-02-21T04:32:50.267Z,87.20
2018-02-21T04:35:17.716Z,65.07
2018-02-21T04:37:45.160Z,76.57
2018-02-21T04:40:13.379Z,83.63
2018-02-21T04:42:40.878Z,62.17
2018-02-21T04:45:08.424Z,85.40
2018-02-21T04:47:35.864Z,68.63
2018-02-21T04:50:03.335Z,69.43
2018-02-21T04:52:30.775Z,73.93
2018-02-21T04:55:00.996Z,71.03
2018-02-21T04:57:34.183Z,80.20
2018-02-21T05:00:03.248Z,80.03
2018-02-21T05:02:30.684Z,64.57
2018-02-21T05:04:58.235Z,77.77
2018-02-21T05:07:25.703Z,88.17
2018-02-21T05:09:53.272Z,83.87
2018-02-21T05:12:20.730Z,85.30
2018-02-21T05:14:48.188Z,79.07
2018-02-21T05:17:15.625Z,80.23
2018-02-21T05:19:43.193Z,71.87
2018-02-21T05:22:10.672Z,81.40
2018-02-21T05:24:38.140Z,94.63
2018-02-21T05:27:05.610Z,62.23
2018-02-21T05:29:33.059Z,75.77
2018-02-21T05:32:00.544Z,66.97
2018-02-21T05:34:27.978Z,79.77
2018-02-21T05:36:55.416Z,82.43
2018-02-21T05:39:22.880Z,68.03
2018-02-21T05:41:50.326Z,80.13
2018-02-21T05:44:17.851Z,67.20
2018-02-21T05:46:45.330Z,72.00
2018-02-21T05:49:13.608Z,89.70
2018-02-21T05:51:41.823Z,68.93
2018-02-21T05:54:09.258Z,78.03
2018-02-21T05:56:37.477Z,69.23
2018-02-21T05:59:04.953Z,65.20
2018-02-21T06:01:32.405Z,72.60
2018-02-21T06:03:59.848Z,84.03
2018-02-21T06:06:27.309Z,67.97
2018-02-21T06:08:54.804Z,69.80
2018-02-21T06:11:22.256Z,78.37
2018-02-21T06:13:49.700Z,71.87
2018-02-21T06:16:17.184Z,84.87
2018-02-21T06:18:44.812Z,57.00
2018-02-21T06:21:12.270Z,84.03
2018-02-21T06:23:39.699Z,66.53
2018-02-21T06:26:07.160Z,70.83
2018-02-21T06:28:34.697Z,69.00
2018-02-21T06:31:02.156Z,62.03
2018-02-21T06:33:29.599Z,78.10
2018-02-21T06:35:57.157Z,71.93
2018-02-21T06:38:24.578Z,75.97
2018-02-21T06:40:52.814Z,74.00
2018-02-21T06:43:20.263Z,64.00
2018-02-21T06:45:47.723Z,73.07
2018-02-21T06:48:15.180Z,72.83
2018-02-21T06:50:42.636Z,69.00
2018-02-21T06:53:10.084Z,77.50
2018-02-21T06:55:39.089Z,70.57
2018-02-21T06:58:06.568Z,72.07
2018-02-21T07:00:34.767Z,72.30
2018-02-21T07:03:02.220Z,75.00
2018-02-21T07:05:29.659Z,74.63
2018-02-21T07:07:57.164Z,63.67
2018-02-21T07:10:24.708Z,68.03
2018-02-21T07:12:52.167Z,74.90
2018-02-21T07:15:19.632Z,78.00
2018-02-21T07:17:47.064Z,64.83
2018-02-21T07:20:14.550Z,53.83
2018-02-21T07:22:42.035Z,59.00
2018-02-21T07:25:09.504Z,61.20
2018-02-21T07:27:36.944Z,58.53
2018-02-21T07:30:04.399Z,68.70
2018-02-21T07:32:31.867Z,66.63
2018-02-21T07:34:59.334Z,57.93
2018-02-21T07:37:26.788Z,68.57
2018-02-21T07:39:54.220Z,62.63
2018-02-21T07:42:21.668Z,67.63
2018-02-21T07:44:49.163Z,62.43
2018-02-21T07:47:16.624Z,67.10
2018-02-21T07:49:44.097Z,56.93
2018-02-21T07:52:11.556Z,69.20
2018-02-21T07:54:39.348Z,52.00
2018-02-21T07:57:06.784Z,59.67
2018-02-21T07:59:34.216Z,57.60
2018-02-21T08:02:01.711Z,50.97
2018-02-21T08:04:29.163Z,59.63
2018-02-21T08:06:56.692Z,55.47
2018-02-21T08:09:24.892Z,53.30
2018-02-21T08:11:52.389Z,61.53
2018-02-21T08:14:19.823Z,51.47
2018-02-21T08:16:47.301Z,56.47
2018-02-21T08:19:15.423Z,65.70
2018-02-21T08:21:43.083Z,52.33
2018-02-21T08:24:11.341Z,57.33
2018-02-21T08:26:38.875Z,62.30
2018-02-21T08:29:06.333Z,67.10
2018-02-21T08:31:33.836Z,65.07
2018-02-21T08:34:02.042Z,62.97
2018-02-21T08:36:29.542Z,65.17
2018-02-21T08:38:56.987Z,56.87
2018-02-21T08:41:24.469Z,65.10
2018-02-21T08:43:51.927Z,59.73
2018-02-21T08:46:19.365Z,58.23
2018-02-21T08:48:46.803Z,67.50
2018-02-21T08:51:14.276Z,66.63
2018-02-21T08:53:41.723Z,60.10
2018-02-21T08:56:09.924Z,60.20
2018-02-21T08:58:37.376Z,67.47
2018-02-21T09:01:04.811Z,59.50
2018-02-21T09:03:33.036Z,51.80
2018-02-21T09:06:00.471Z,50.57
2018-02-21T09:08:27.947Z,56.13
2018-02-21T09:10:55.395Z,59.43
2018-02-21T09:13:23.600Z,61.77
2018-02-21T09:15:51.039Z,56.50
2018-02-21T09:18:18.480Z,59.13
2018-02-21T09:20:46.763Z,51.50
2018-02-21T09:23:14.352Z,49.73
2018-02-21T09:25:41.771Z,46.70
2018-02-21T09:28:09.210Z,51.30
2018-02-21T09:30:36.643Z,52.80
2018-02-21T09:33:04.092Z,51.97
2018-02-21T09:35:31.544Z,41.73
2018-02-21T09:37:58.991Z,49.00
2018-02-21T09:40:27.208Z,54.70
2018-02-21T09:42:54.654Z,49.87
2018-02-21T09:45:22.843Z,46.77
2018-02-21T09:47:50.304Z,48.33
2018-02-21T09:50:17.753Z,48.90
2018-02-21T09:52:45.209Z,47.57
2018-02-21T09:55:12.649Z,56.30
2018-02-21T09:57:40.958Z,47.47
2018-02-21T10:00:08.387Z,49.17
2018-02-21T10:02:36.628Z,45.50
2018-02-21T10:05:04.080Z,40.10
2018-02-21T10:07:31.533Z,50.70
2018-02-21T10:09:58.982Z,46.00
2018-02-21T10:12:26.412Z,49.90
2018-02-21T10:14:54.636Z,41.20
2018-02-21T10:17:22.189Z,41.23
2018-02-21T10:19:49.647Z,40.37
2018-02-21T10:22:17.091Z,37.17
2018-02-21T10:24:44.544Z,41.53
2018-02-21T10:27:12.753Z,41.10
2018-02-21T10:29:40.248Z,40.83
2018-02-21T10:32:07.772Z,46.43
2018-02-21T10:34:35.215Z,44.00
2018-02-21T10:37:03.419Z,41.93
2018-02-21T10:39:30.871Z,39.10
2018-02-21T10:41:58.344Z,41.47
2018-02-21T10:44:25.845Z,46.90
2018-02-21T10:46:53.312Z,43.60
2018-02-21T10:49:20.753Z,36.37
2018-02-21T10:51:48.199Z,46.57
2018-02-21T10:54:15.646Z,50.77
2018-02-21T10:56:43.078Z,42.70
2018-02-21T10:59:11.292Z,48.23
2018-02-21T11:01:38.736Z,38.97
2018-02-21T11:04:06.183Z,42.00
2018-02-21T11:06:33.744Z,43.60
2018-02-21T11:09:01.965Z,37.63
2018-02-21T11:11:29.404Z,37.33
2018-02-21T11:13:56.856Z,39.27
2018-02-21T11:16:24.340Z,35.97
2018-02-21T11:18:51.793Z,38.63
2018-02-21T11:21:19.233Z,40.47
2018-02-21T11:23:47.467Z,34.87
2018-02-21T11:26:14.924Z,39.30
2018-02-21T11:28:42.455Z,42.30
2018-02-21T11:31:09.885Z,39.30
2018-02-21T11:33:38.101Z,39.50
2018-02-21T11:36:05.583Z,40.53
2018-02-21T11:38:33.036Z,42.63
2018-02-21T11:41:00.479Z,43.60
2018-02-21T11:43:27.944Z,38.73
2018-02-21T11:45:55.383Z,41.17
2018-02-21T11:48:22.839Z,40.30
2018-02-21T11:50:51.073Z,46.40
2018-02-21T11:53:18.508Z,38.27
2018-02-21T11:55:46.114Z,36.00
2018-02-21T11:58:13.546Z,37.70
2018-02-21T12:00:40.987Z,42.10
2018-02-21T12:03:08.432Z,33.90
2018-02-21T12:05:35.937Z,35.00
2018-02-21T12:08:03.408Z,31.77
2018-02-21T12:10:30.863Z,32.33
2018-02-21T12:12:58.331Z,39.90
2018-02-21T12:15:25.772Z,28.10
2018-02-21T12:17:53.223Z,35.87
2018-02-21T12:20:20.678Z,28.97
2018-02-21T12:22:48.230Z,38.60
2018-02-21T12:25:16.493Z,34.30
2018-02-21T12:27:44.700Z,32.07
2018-02-21T12:30:12.195Z,31.33
2018-02-21T12:32:40.772Z,28.43
2018-02-21T12:35:08.233Z,34.53
2018-02-21T12:37:35.705Z,38.60
2018-02-21T12:40:03.156Z,36.30
2018-02-21T12:42:30.583Z,32.07
2018-02-21T12:44:58.033Z,27.70
2018-02-21T12:47:26.269Z,32.37
2018-02-21T12:49:53.736Z,35.30
2018-02-21T12:52:21.175Z,27.50
2018-02-21T12:54:49.866Z,35.27
2018-02-21T12:57:17.291Z,34.50
2018-02-21T12:59:45.523Z,37.83
2018-02-21T13:02:12.963Z,35.47
2018-02-21T13:04:40.428Z,33.50
2018-02-21T13:07:07.872Z,35.43
2018-02-21T13:09:35.333Z,33.70
2018-02-21T13:12:02.776Z,36.43
2018-02-21T13:14:30.996Z,34.90
2018-02-21T13:16:58.539Z,31.23
2018-02-21T13:19:25.999Z,38.27
2018-02-21T13:21:53.498Z,36.40
2018-02-21T13:24:21.058Z,36.53
2018-02-21T13:26:48.510Z,32.33
2018-02-21T13:29:16.009Z,32.87
2018-02-21T13:31:43.614Z,33.63
2018-02-21T13:34:11.048Z,32.50
2018-02-21T13:36:39.464Z,33.50
2018-02-21T13:39:06.921Z,36.10
2018-02-21T13:41:34.371Z,32.67
2018-02-21T13:44:01.821Z,29.73
2018-02-21T13:46:30.041Z,30.90
2018-02-21T13:48:57.503Z,36.93
2018-02-21T13:51:24.976Z,33.40
2018-02-21T13:53:52.423Z,36.57
2018-02-21T13:56:19.872Z,34.33
2018-02-21T13:58:47.312Z,32.50
2018-02-21T14:01:14.755Z,38.10
2018-02-21T14:03:42.972Z,33.70
2018-02-21T14:06:10.440Z,32.00
2018-02-21T14:08:37.913Z,40.53
2018-02-21T14:11:05.360Z,28.97
2018-02-21T14:13:32.912Z,32.60
2018-02-21T14:16:00.411Z,35.77
2018-02-21T14:18:27.884Z,25.40
2018-02-21T14:20:55.335Z,40.90
2018-02-21T14:23:22.798Z,42.47
2018-02-21T14:25:50.243Z,33.00
2018-02-21T14:28:17.695Z,32.50
2018-02-21T14:30:45.168Z,33.50
2018-02-21T14:33:12.624Z,36.43
2018-02-21T14:35:40.088Z,39.07
2018-02-21T14:38:07.556Z,37.53
2018-02-21T14:40:35.008Z,32.17
2018-02-21T14:43:02.459Z,36.93
2018-02-21T14:45:29.940Z,38.07
2018-02-21T14:47:57.395Z,34.80
2018-02-21T14:50:24.861Z,28.47
2018-02-21T14:52:52.304Z,42.80
2018-02-21T14:55:19.786Z,36.53
2018-02-21T14:57:47.224Z,29.30
2018-02-21T15:00:14.676Z,32.87
2018-02-21T15:02:42.931Z,32.47
2018-02-21T15:05:11.132Z,29.83
2018-02-21T15:07:38.700Z,26.70
2018-02-21T15:10:06.201Z,33.60
2018-02-21T15:12:33.677Z,45.17
2018-02-21T15:15:01.115Z,30.60
2018-02-21T15:17:28.577Z,38.37
2018-02-21T15:19:56.008Z,35.23
2018-02-21T15:22:23.460Z,32.70
2018-02-21T15:24:50.959Z,32.10
2018-02-21T15:27:18.419Z,30.43
2018-02-21T15:29:45.865Z,31.60
2018-02-21T15:32:13.332Z,32.10
2018-02-21T15:34:40.751Z,29.07
2018-02-21T15:37:08.978Z,25.57
2018-02-21T15:39:36.424Z,44.77
2018-02-21T15:42:04.037Z,25.47
2018-02-21T15:44:31.464Z,40.20
2018-02-21T15:46:58.910Z,25.07
2018-02-21T15:49:26.391Z,31.67
2018-02-21T15:51:53.864Z,30.40
2018-02-21T15:54:21.301Z,31.07
2018-02-21T15:56:48.781Z,33.60
2018-02-21T15:59:16.311Z,33.30
2018-02-21T16:01:43.744Z,32.43
2018-02-21T16:04:11.957Z,29.40
2018-02-21T16:06:39.454Z,34.53
2018-02-21T16:09:06.870Z,33.97
2018-02-21T16:11:34.347Z,25.63
2018-02-21T16:14:01.808Z,29.97
2018-02-21T16:16:29.292Z,30.23
2018-02-21T16:18:56.732Z,29.23
2018-02-21T16:21:24.175Z,31.03
2018-02-21T16:23:51.634Z,32.23
2018-02-21T16:26:19.076Z,24.07
2018-02-21T16:28:47.361Z,25.73
2018-02-21T16:31:15.585Z,27.67
2018-02-21T16:33:43.045Z,30.03
2018-02-21T16:36:10.500Z,37.20
2018-02-21T16:38:37.952Z,28.73
2018-02-21T16:41:05.388Z,33.13
2018-02-21T16:43:32.888Z,26.33
2018-02-21T16:46:00.374Z,31.10
2018-02-21T16:48:27.874Z,25.00
2018-02-21T16:50:55.322Z,25.77
2018-02-21T16:53:23.532Z,32.50
2018-02-21T16:55:51.019Z,21.43
2018-02-21T16:58:18.524Z,24.87
2018-02-21T17:00:46.719Z,32.67
2018-02-21T17:03:14.936Z,30.70
2018-02-21T17:05:42.395Z,31.07
2018-02-21T17:08:09.898Z,27.47
2018-02-21T17:10:37.335Z,25.30
2018-02-21T17:13:04.772Z,28.50
2018-02-21T17:15:32.246Z,27.73
2018-02-21T17:17:59.713Z,33.37
2018-02-21T17:20:29.121Z,28.07
2018-02-21T17:22:56.601Z,27.53
2018-02-21T17:25:24.036Z,23.80
2018-02-21T17:27:51.500Z,29.47
2018-02-21T17:30:18.943Z,28.30
2018-02-21T17:32:46.384Z,27.67
2018-02-21T17:35:13.892Z,26.93
2018-02-21T17:37:41.350Z,30.30
2018-02-21T17:40:08.803Z,27.93
2018-02-21T17:42:36.259Z,24.10
2018-02-21T17:45:03.693Z,26.53
2018-02-21T17:47:31.162Z,31.07
2018-02-21T17:49:58.647Z,29.80
2018-02-21T17:52:26.104Z,27.20
2018-02-21T17:54:53.558Z,34.57
2018-02-21T17:57:21.143Z,28.87
2018-02-21T17:59:48.552Z,28.73
2018-02-21T18:02:16.768Z,33.30
2018-02-21T18:04:44.209Z,39.00
2018-02-21T18:07:11.664Z,29.07
2018-02-21T18:09:39.149Z,38.17
2018-02-21T18:12:06.804Z,32.23
2018-02-21T18:14:34.283Z,31.37
2018-02-21T18:17:01.944Z,31.63
2018-02-21T18:19:29.412Z,32.47
2018-02-21T18:21:56.848Z,46.93
2018-02-21T18:24:24.338Z,28.73
2018-02-21T18:26:51.795Z,26.37
2018-02-21T18:29:19.269Z,30.27
2018-02-21T18:31:46.715Z,25.77
2018-02-21T18:34:14.177Z,27.93
2018-02-21T18:36:41.708Z,33.63
2018-02-21T18:39:09.231Z,27.90
2018-02-21T18:41:36.848Z,24.07
2018-02-21T18:44:04.279Z,30.97
2018-02-21T18:46:32.492Z,39.40
2018-02-21T18:49:00.052Z,54.13
2018-02-21T18:51:27.541Z,40.10
2018-02-21T18:53:54.988Z,43.37
2018-02-21T18:56:22.536Z,37.50
2018-02-21T18:58:50.051Z,42.33
2018-02-21T19:01:17.583Z,34.13
2018-02-21T19:03:45.048Z,34.10
2018-02-21T19:06:12.523Z,32.57
2018-02-21T19:08:39.979Z,32.77
2018-02-21T19:11:07.440Z,36.53
2018-02-21T19:13:34.884Z,39.13
2018-02-21T19:16:02.364Z,32.20
2018-02-21T19:18:29.843Z,28.13
2018-02-21T19:20:57.384Z,32.80
2018-02-21T19:23:24.849Z,26.43
2018-02-21T19:25:52.293Z,31.43
2018-02-21T19:28:19.847Z,36.97
2018-02-21T19:30:47.270Z,26.63
2018-02-21T19:33:15.544Z,31.17
2018-02-21T19:35:43.110Z,28.67
2018-02-21T19:38:10.667Z,31.07
2018-02-21T19:40:38.115Z,28.43
2018-02-21T19:43:05.576Z,33.60
2018-02-21T19:45:33.060Z,38.73
2018-02-21T19:48:00.561Z,35.53
2018-02-21T19:50:28.140Z,37.77
2018-02-21T19:52:55.688Z,29.87
2018-02-21T19:55:23.145Z,28.87
2018-02-21T19:57:50.575Z,31.63
2018-02-21T20:00:18.014Z,32.27
2018-02-21T20:02:45.472Z,29.97
2018-02-21T20:05:12.932Z,32.73
2018-02-21T20:07:40.388Z,28.57
2018-02-21T20:10:07.863Z,34.00
2018-02-21T20:12:35.368Z,43.63
2018-02-21T20:15:02.827Z,35.93
2018-02-21T20:17:30.327Z,31.93
2018-02-21T20:19:57.787Z,33.83
2018-02-21T20:22:25.279Z,26.60
2018-02-21T20:24:52.716Z,38.07
2018-02-21T20:27:20.172Z,32.40
2018-02-21T20:29:47.611Z,36.43
2018-02-21T20:32:15.095Z,30.43
2018-02-21T20:34:42.667Z,33.27
2018-02-21T20:37:10.119Z,30.57
2018-02-21T20:39:37.608Z,35.77
2018-02-21T20:42:05.051Z,37.67
2018-02-21T20:44:32.588Z,39.97
2018-02-21T20:47:00.072Z,31.17
2018-02-21T20:49:27.511Z,32.10
2018-02-21T20:51:55.064Z,32.37
2018-02-21T20:54:23.352Z,30.70
2018-02-21T20:56:53.155Z,30.77
2018-02-21T20:59:21.044Z,33.53
2018-02-21T21:01:48.531Z,24.67
2018-02-21T21:04:16.037Z,48.60
2018-02-21T21:06:43.494Z,30.23
2018-02-21T21:09:11.716Z,31.93
2018-02-21T21:11:39.167Z,36.77
2018-02-21T21:14:06.659Z,28.57
2018-02-21T21:16:36.076Z,32.77
2018-02-21T21:19:03.585Z,31.37
2018-02-21T21:21:31.023Z,27.10
2018-02-21T21:23:59.338Z,30.10
2018-02-21T21:26:26.800Z,34.23
2018-02-21T21:28:54.243Z,32.03
2018-02-21T21:31:21.687Z,21.83
2018-02-21T21:33:49.982Z,30.93
2018-02-21T21:36:19.124Z,26.37
2018-02-21T21:38:46.559Z,29.50
2018-02-21T21:41:13.995Z,26.70
2018-02-21T21:43:42.229Z,31.80
2018-02-21T21:46:09.696Z,40.00
2018-02-21T21:48:37.140Z,26.53
2018-02-21T21:51:04.692Z,38.47
2018-02-21T21:53:32.119Z,34.80
2018-02-21T21:56:00.354Z,31.70
2018-02-21T21:58:27.821Z,27.70
2018-02-21T22:00:55.268Z,31.60
2018-02-21T22:03:22.741Z,30.40
2018-02-21T22:05:50.188Z,30.17
2018-02-21T22:08:17.659Z,29.13
2018-02-21T22:10:45.129Z,33.97
2018-02-21T22:13:12.696Z,36.03
2018-02-21T22:15:40.155Z,33.97
2018-02-21T22:18:07.613Z,32.90
2018-02-21T22:20:35.109Z,24.70
2018-02-21T22:23:02.515Z,32.00
2018-02-21T22:25:29.962Z,29.63
2018-02-21T22:27:57.390Z,26.77
2018-02-21T22:30:26.344Z,30.50
2018-02-21T22:32:53.856Z,29.00
2018-02-21T22:35:22.118Z,31.90
2018-02-21T22:37:49.658Z,34.60
2018-02-21T22:40:17.105Z,31.50
2018-02-21T22:42:44.553Z,33.27
2018-02-21T22:45:12.063Z,28.73
2018-02-21T22:47:39.498Z,27.53
2018-02-21T22:50:06.943Z,41.40
2018-02-21T22:52:34.382Z,26.93
2018-02-21T22:55:01.836Z,27.83
2018-02-21T22:57:30.043Z,34.60
2018-02-21T22:59:57.504Z,28.97
2018-02-21T23:02:25.251Z,24.53
2018-02-21T23:04:53.472Z,26.33
2018-02-21T23:07:20.919Z,28.93
2018-02-21T23:09:48.395Z,32.27
2018-02-21T23:12:15.961Z,25.80
2018-02-21T23:14:43.420Z,34.37
2018-02-21T23:17:10.867Z,24.47
2018-02-21T23:19:38.339Z,32.23
2018-02-21T23:22:05.880Z,27.97
2018-02-21T23:24:33.306Z,33.50
2018-02-21T23:27:01.540Z,32.77
2018-02-21T23:29:28.976Z,24.23
2018-02-21T23:31:56.465Z,34.57
2018-02-21T23:34:24.047Z,35.93
2018-02-21T23:36:51.484Z,28.73
2018-02-21T23:39:18.919Z,32.33
2018-02-21T23:41:46.399Z,29.30
2018-02-21T23:44:13.898Z,24.30
2018-02-21T23:46:41.352Z,36.57
2018-02-21T23:49:08.795Z,24.50
2018-02-21T23:51:36.332Z,22.50
2018-02-21T23:54:03.767Z,26.33
2018-02-21T23:56:31.995Z,29.80
2018-02-21T23:58:59.472Z,23.43
